sensor_id;sensor_type;location;lat;lon;timestamp;temperature;humidity
12874;DHT22;6505;51.114;13.128;2022-09-09T00:00:47;21.60;65.70
12874;DHT22;6505;51.114;13.128;2022-09-09T00:03:19;21.60;65.60
12874;DHT22;6505;51.114;13.128;2022-09-09T00:06:01;21.60;65.50
12874;DHT22;6505;51.114;13.128;2022-09-09T00:08:39;21.60;65.60
12874;DHT22;6505;51.114;13.128;2022-09-09T00:11:17;21.50;65.50
12874;DHT22;6505;51.114;13.128;2022-09-09T00:13:59;21.50;65.50
12874;DHT22;6505;51.114;13.128;2022-09-09T00:16:34;21.60;65.60
12874;DHT22;6505;51.114;13.128;2022-09-09T00:19:08;21.50;65.60
12874;DHT22;6505;51.114;13.128;2022-09-09T00:21:53;21.50;65.70
12874;DHT22;6505;51.114;13.128;2022-09-09T00:24:38;21.50;65.70
12874;DHT22;6505;51.114;13.128;2022-09-09T00:27:16;21.50;65.70
12874;DHT22;6505;51.114;13.128;2022-09-09T00:29:57;21.50;65.60
12874;DHT22;6505;51.114;13.128;2022-09-09T00:32:30;21.50;65.60
12874;DHT22;6505;51.114;13.128;2022-09-09T00:35:02;21.40;65.30
12874;DHT22;6505;51.114;13.128;2022-09-09T00:37:41;21.40;65.70
12874;DHT22;6505;51.114;13.128;2022-09-09T00:40:22;21.50;65.80
12874;DHT22;6505;51.114;13.128;2022-09-09T00:43:03;21.40;65.50
12874;DHT22;6505;51.114;13.128;2022-09-09T00:45:59;21.40;65.70
12874;DHT22;6505;51.114;13.128;2022-09-09T00:48:45;21.40;65.70
12874;DHT22;6505;51.114;13.128;2022-09-09T00:51:27;21.40;65.70
12874;DHT22;6505;51.114;13.128;2022-09-09T00:54:18;21.40;65.60
12874;DHT22;6505;51.114;13.128;2022-09-09T00:57:03;21.40;65.70
12874;DHT22;6505;51.114;13.128;2022-09-09T00:59:47;21.40;65.60
12874;DHT22;6505;51.114;13.128;2022-09-09T01:02:26;21.40;65.70
12874;DHT22;6505;51.114;13.128;2022-09-09T01:05:04;21.40;65.60
12874;DHT22;6505;51.114;13.128;2022-09-09T01:07:40;21.30;65.40
12874;DHT22;6505;51.114;13.128;2022-09-09T01:10:27;21.30;65.40
12874;DHT22;6505;51.114;13.128;2022-09-09T01:13:11;21.30;65.40
12874;DHT22;6505;51.114;13.128;2022-09-09T01:15:45;21.30;66.20
12874;DHT22;6505;51.114;13.128;2022-09-09T01:18:17;21.30;65.30
12874;DHT22;6505;51.114;13.128;2022-09-09T01:20:54;21.30;65.30
12874;DHT22;6505;51.114;13.128;2022-09-09T01:23:41;21.30;65.40
12874;DHT22;6505;51.114;13.128;2022-09-09T01:26:31;21.30;65.50
12874;DHT22;6505;51.114;13.128;2022-09-09T01:29:08;21.30;65.50
12874;DHT22;6505;51.114;13.128;2022-09-09T01:31:42;21.20;65.40
12874;DHT22;6505;51.114;13.128;2022-09-09T01:34:21;21.20;65.50
12874;DHT22;6505;51.114;13.128;2022-09-09T01:36:57;21.30;65.50
12874;DHT22;6505;51.114;13.128;2022-09-09T01:39:32;21.20;65.40
12874;DHT22;6505;51.114;13.128;2022-09-09T01:42:07;21.30;65.50
12874;DHT22;6505;51.114;13.128;2022-09-09T01:44:38;21.20;65.40
12874;DHT22;6505;51.114;13.128;2022-09-09T01:47:07;21.20;65.30
12874;DHT22;6505;51.114;13.128;2022-09-09T01:49:52;21.20;66.10
12874;DHT22;6505;51.114;13.128;2022-09-09T01:52:24;21.20;65.40
12874;DHT22;6505;51.114;13.128;2022-09-09T01:54:53;21.30;65.40
12874;DHT22;6505;51.114;13.128;2022-09-09T01:57:28;21.20;65.10
12874;DHT22;6505;51.114;13.128;2022-09-09T02:00:04;21.20;65.30
12874;DHT22;6505;51.114;13.128;2022-09-09T02:02:48;21.20;65.10
12874;DHT22;6505;51.114;13.128;2022-09-09T02:05:37;21.20;65.10
12874;DHT22;6505;51.114;13.128;2022-09-09T02:08:18;21.20;65.00
12874;DHT22;6505;51.114;13.128;2022-09-09T02:11:01;21.20;65.00
12874;DHT22;6505;51.114;13.128;2022-09-09T02:13:51;21.20;65.20
12874;DHT22;6505;51.114;13.128;2022-09-09T02:16:26;21.10;65.10
12874;DHT22;6505;51.114;13.128;2022-09-09T02:19:02;21.10;65.00
12874;DHT22;6505;51.114;13.128;2022-09-09T02:21:59;21.10;65.30
12874;DHT22;6505;51.114;13.128;2022-09-09T02:24:31;21.10;66.10
12874;DHT22;6505;51.114;13.128;2022-09-09T02:27:20;21.10;65.30
12874;DHT22;6505;51.114;13.128;2022-09-09T02:29:53;21.10;65.10
12874;DHT22;6505;51.114;13.128;2022-09-09T02:32:35;21.00;65.30
12874;DHT22;6505;51.114;13.128;2022-09-09T02:35:12;21.10;66.00
12874;DHT22;6505;51.114;13.128;2022-09-09T02:37:44;21.10;65.10
12874;DHT22;6505;51.114;13.128;2022-09-09T02:40:15;21.10;65.10
12874;DHT22;6505;51.114;13.128;2022-09-09T02:42:49;21.10;65.10
12874;DHT22;6505;51.114;13.128;2022-09-09T02:45:24;21.10;65.10
12874;DHT22;6505;51.114;13.128;2022-09-09T02:48:03;21.00;64.90
12874;DHT22;6505;51.114;13.128;2022-09-09T02:50:42;21.00;65.00
12874;DHT22;6505;51.114;13.128;2022-09-09T02:53:27;21.00;65.10
12874;DHT22;6505;51.114;13.128;2022-09-09T02:56:04;21.00;65.00
12874;DHT22;6505;51.114;13.128;2022-09-09T02:58:39;21.00;64.90
12874;DHT22;6505;51.114;13.128;2022-09-09T03:01:09;21.00;64.90
12874;DHT22;6505;51.114;13.128;2022-09-09T03:03:38;21.00;64.80
12874;DHT22;6505;51.114;13.128;2022-09-09T03:06:11;21.00;64.80
12874;DHT22;6505;51.114;13.128;2022-09-09T03:08:41;21.00;64.80
12874;DHT22;6505;51.114;13.128;2022-09-09T03:11:16;21.00;64.80
12874;DHT22;6505;51.114;13.128;2022-09-09T03:13:44;21.00;64.90
12874;DHT22;6505;51.114;13.128;2022-09-09T03:16:15;21.00;64.90
12874;DHT22;6505;51.114;13.128;2022-09-09T03:18:47;21.00;64.80
12874;DHT22;6505;51.114;13.128;2022-09-09T03:21:16;21.00;64.90
12874;DHT22;6505;51.114;13.128;2022-09-09T03:23:44;21.00;64.90
12874;DHT22;6505;51.114;13.128;2022-09-09T03:26:13;21.00;64.90
12874;DHT22;6505;51.114;13.128;2022-09-09T03:28:45;20.90;64.90
12874;DHT22;6505;51.114;13.128;2022-09-09T03:31:18;20.90;64.90
12874;DHT22;6505;51.114;13.128;2022-09-09T03:33:47;21.00;64.90
12874;DHT22;6505;51.114;13.128;2022-09-09T03:36:16;20.90;64.80
12874;DHT22;6505;51.114;13.128;2022-09-09T03:38:45;21.00;65.00
12874;DHT22;6505;51.114;13.128;2022-09-09T03:41:13;20.90;64.70
12874;DHT22;6505;51.114;13.128;2022-09-09T03:43:42;20.90;64.80
12874;DHT22;6505;51.114;13.128;2022-09-09T03:46:10;20.90;64.80
12874;DHT22;6505;51.114;13.128;2022-09-09T03:48:40;20.90;64.90
12874;DHT22;6505;51.114;13.128;2022-09-09T03:51:07;20.90;64.90
12874;DHT22;6505;51.114;13.128;2022-09-09T03:53:36;20.80;64.80
12874;DHT22;6505;51.114;13.128;2022-09-09T03:56:06;20.80;64.70
12874;DHT22;6505;51.114;13.128;2022-09-09T03:58:35;20.80;64.90
12874;DHT22;6505;51.114;13.128;2022-09-09T04:01:08;20.80;64.90
12874;DHT22;6505;51.114;13.128;2022-09-09T04:03:42;20.90;64.90
12874;DHT22;6505;51.114;13.128;2022-09-09T04:06:13;20.80;64.70
12874;DHT22;6505;51.114;13.128;2022-09-09T04:08:44;20.80;64.90
12874;DHT22;6505;51.114;13.128;2022-09-09T04:11:15;20.80;64.70
12874;DHT22;6505;51.114;13.128;2022-09-09T04:13:44;20.80;64.70
12874;DHT22;6505;51.114;13.128;2022-09-09T04:16:13;20.80;64.70
12874;DHT22;6505;51.114;13.128;2022-09-09T04:18:43;20.80;64.70
12874;DHT22;6505;51.114;13.128;2022-09-09T04:21:13;20.80;64.70
12874;DHT22;6505;51.114;13.128;2022-09-09T04:23:42;20.80;64.80
12874;DHT22;6505;51.114;13.128;2022-09-09T04:26:10;20.80;64.70
12874;DHT22;6505;51.114;13.128;2022-09-09T04:28:39;20.70;64.50
12874;DHT22;6505;51.114;13.128;2022-09-09T04:31:16;20.70;64.50
12874;DHT22;6505;51.114;13.128;2022-09-09T04:33:49;20.80;64.90
12874;DHT22;6505;51.114;13.128;2022-09-09T04:36:18;20.80;64.60
12874;DHT22;6505;51.114;13.128;2022-09-09T04:38:48;20.70;64.60
12874;DHT22;6505;51.114;13.128;2022-09-09T04:41:17;20.70;64.50
12874;DHT22;6505;51.114;13.128;2022-09-09T04:43:48;20.50;64.60
12874;DHT22;6505;51.114;13.128;2022-09-09T04:46:16;20.50;65.20
12874;DHT22;6505;51.114;13.128;2022-09-09T04:48:49;20.60;65.30
12874;DHT22;6505;51.114;13.128;2022-09-09T04:51:19;20.60;65.20
12874;DHT22;6505;51.114;13.128;2022-09-09T04:53:48;20.70;64.90
12874;DHT22;6505;51.114;13.128;2022-09-09T04:56:19;20.80;64.70
12874;DHT22;6505;51.114;13.128;2022-09-09T04:58:51;20.80;64.60
12874;DHT22;6505;51.114;13.128;2022-09-09T05:01:22;20.80;64.30
12874;DHT22;6505;51.114;13.128;2022-09-09T05:03:54;20.80;64.20
12874;DHT22;6505;51.114;13.128;2022-09-09T05:06:23;20.80;64.30
12874;DHT22;6505;51.114;13.128;2022-09-09T05:08:57;20.80;64.30
12874;DHT22;6505;51.114;13.128;2022-09-09T05:11:29;20.80;64.30
12874;DHT22;6505;51.114;13.128;2022-09-09T05:14:05;20.80;64.60
12874;DHT22;6505;51.114;13.128;2022-09-09T05:16:33;20.80;64.60
12874;DHT22;6505;51.114;13.128;2022-09-09T05:19:03;20.80;64.70
12874;DHT22;6505;51.114;13.128;2022-09-09T05:21:42;20.80;64.60
12874;DHT22;6505;51.114;13.128;2022-09-09T05:24:11;20.80;65.00
12874;DHT22;6505;51.114;13.128;2022-09-09T05:26:39;20.80;66.00
12874;DHT22;6505;51.114;13.128;2022-09-09T05:29:07;20.80;65.10
12874;DHT22;6505;51.114;13.128;2022-09-09T05:31:35;20.70;65.40
12874;DHT22;6505;51.114;13.128;2022-09-09T05:34:09;20.80;65.50
12874;DHT22;6505;51.114;13.128;2022-09-09T05:36:38;20.80;65.50
12874;DHT22;6505;51.114;13.128;2022-09-09T05:39:07;20.80;65.60
12874;DHT22;6505;51.114;13.128;2022-09-09T05:41:35;20.80;65.50
12874;DHT22;6505;51.114;13.128;2022-09-09T05:44:03;20.80;65.80
12874;DHT22;6505;51.114;13.128;2022-09-09T05:46:37;20.90;66.10
12874;DHT22;6505;51.114;13.128;2022-09-09T05:49:05;21.00;65.80
12874;DHT22;6505;51.114;13.128;2022-09-09T05:51:36;21.00;65.70
12874;DHT22;6505;51.114;13.128;2022-09-09T05:54:09;21.00;65.70
12874;DHT22;6505;51.114;13.128;2022-09-09T05:56:42;21.00;65.70
12874;DHT22;6505;51.114;13.128;2022-09-09T05:59:15;21.00;65.50
12874;DHT22;6505;51.114;13.128;2022-09-09T06:01:43;21.10;65.80
12874;DHT22;6505;51.114;13.128;2022-09-09T06:04:32;21.10;65.90
12874;DHT22;6505;51.114;13.128;2022-09-09T06:07:02;21.10;65.90
12874;DHT22;6505;51.114;13.128;2022-09-09T06:09:30;21.20;66.20
12874;DHT22;6505;51.114;13.128;2022-09-09T06:11:58;21.20;66.20
12874;DHT22;6505;51.114;13.128;2022-09-09T06:14:26;21.20;66.00
12874;DHT22;6505;51.114;13.128;2022-09-09T06:16:58;21.30;66.10
12874;DHT22;6505;51.114;13.128;2022-09-09T06:19:28;21.30;66.10
12874;DHT22;6505;51.114;13.128;2022-09-09T06:21:58;21.30;66.40
12874;DHT22;6505;51.114;13.128;2022-09-09T06:24:30;21.40;66.10
12874;DHT22;6505;51.114;13.128;2022-09-09T06:27:00;21.40;66.10
12874;DHT22;6505;51.114;13.128;2022-09-09T06:29:32;21.40;66.20
12874;DHT22;6505;51.114;13.128;2022-09-09T06:32:01;21.50;66.20
12874;DHT22;6505;51.114;13.128;2022-09-09T06:34:30;21.50;66.20
12874;DHT22;6505;51.114;13.128;2022-09-09T06:36:59;21.50;66.20
12874;DHT22;6505;51.114;13.128;2022-09-09T06:39:46;21.60;66.40
12874;DHT22;6505;51.114;13.128;2022-09-09T06:42:15;21.60;66.30
12874;DHT22;6505;51.114;13.128;2022-09-09T06:44:50;21.50;66.10
12874;DHT22;6505;51.114;13.128;2022-09-09T06:47:31;21.60;66.30
12874;DHT22;6505;51.114;13.128;2022-09-09T06:50:00;21.70;66.40
12874;DHT22;6505;51.114;13.128;2022-09-09T06:52:29;21.70;66.40
12874;DHT22;6505;51.114;13.128;2022-09-09T06:55:01;21.70;66.50
12874;DHT22;6505;51.114;13.128;2022-09-09T06:57:29;21.70;66.50
12874;DHT22;6505;51.114;13.128;2022-09-09T07:00:12;21.80;66.60
12874;DHT22;6505;51.114;13.128;2022-09-09T07:02:40;21.90;66.70
12874;DHT22;6505;51.114;13.128;2022-09-09T07:05:09;22.00;67.00
12874;DHT22;6505;51.114;13.128;2022-09-09T07:07:40;22.00;66.80
12874;DHT22;6505;51.114;13.128;2022-09-09T07:10:11;22.10;66.90
12874;DHT22;6505;51.114;13.128;2022-09-09T07:12:39;22.10;66.90
12874;DHT22;6505;51.114;13.128;2022-09-09T07:15:10;22.20;67.40
12874;DHT22;6505;51.114;13.128;2022-09-09T07:17:42;22.30;67.00
12874;DHT22;6505;51.114;13.128;2022-09-09T07:20:10;22.30;66.70
12874;DHT22;6505;51.114;13.128;2022-09-09T07:22:39;22.40;66.70
12874;DHT22;6505;51.114;13.128;2022-09-09T07:25:08;22.40;66.60
12874;DHT22;6505;51.114;13.128;2022-09-09T07:27:38;22.50;67.20
12874;DHT22;6505;51.114;13.128;2022-09-09T07:30:08;22.50;67.20
12874;DHT22;6505;51.114;13.128;2022-09-09T07:32:43;22.60;67.30
12874;DHT22;6505;51.114;13.128;2022-09-09T07:35:11;22.60;66.90
12874;DHT22;6505;51.114;13.128;2022-09-09T07:37:40;22.60;67.30
12874;DHT22;6505;51.114;13.128;2022-09-09T07:40:13;22.60;67.10
12874;DHT22;6505;51.114;13.128;2022-09-09T07:42:43;22.60;67.20
12874;DHT22;6505;51.114;13.128;2022-09-09T07:45:11;22.60;67.30
12874;DHT22;6505;51.114;13.128;2022-09-09T07:47:38;22.70;67.10
12874;DHT22;6505;51.114;13.128;2022-09-09T07:50:08;22.70;67.50
12874;DHT22;6505;51.114;13.128;2022-09-09T07:52:37;22.70;67.40
12874;DHT22;6505;51.114;13.128;2022-09-09T07:55:06;22.70;67.20
12874;DHT22;6505;51.114;13.128;2022-09-09T07:57:36;22.70;67.40
12874;DHT22;6505;51.114;13.128;2022-09-09T08:00:06;22.70;66.80
12874;DHT22;6505;51.114;13.128;2022-09-09T08:02:41;22.80;67.40
12874;DHT22;6505;51.114;13.128;2022-09-09T08:05:10;22.80;67.50
12874;DHT22;6505;51.114;13.128;2022-09-09T08:07:39;22.80;67.50
12874;DHT22;6505;51.114;13.128;2022-09-09T08:10:08;22.80;66.90
12874;DHT22;6505;51.114;13.128;2022-09-09T08:12:39;22.90;67.10
12874;DHT22;6505;51.114;13.128;2022-09-09T08:15:23;22.80;66.40
12874;DHT22;6505;51.114;13.128;2022-09-09T08:17:51;22.90;66.80
12874;DHT22;6505;51.114;13.128;2022-09-09T08:20:19;22.90;66.70
12874;DHT22;6505;51.114;13.128;2022-09-09T08:22:47;22.90;66.60
12874;DHT22;6505;51.114;13.128;2022-09-09T08:25:16;22.90;66.70
12874;DHT22;6505;51.114;13.128;2022-09-09T08:27:44;22.90;67.20
12874;DHT22;6505;51.114;13.128;2022-09-09T08:30:12;22.90;67.60
12874;DHT22;6505;51.114;13.128;2022-09-09T08:32:42;22.90;67.40
12874;DHT22;6505;51.114;13.128;2022-09-09T08:35:13;22.90;67.90
12874;DHT22;6505;51.114;13.128;2022-09-09T08:37:41;22.90;68.20
12874;DHT22;6505;51.114;13.128;2022-09-09T08:40:11;23.00;69.00
12874;DHT22;6505;51.114;13.128;2022-09-09T08:42:49;22.90;69.60
12874;DHT22;6505;51.114;13.128;2022-09-09T08:45:28;22.90;69.30
12874;DHT22;6505;51.114;13.128;2022-09-09T08:48:14;22.90;69.80
12874;DHT22;6505;51.114;13.128;2022-09-09T08:50:52;22.90;70.00
12874;DHT22;6505;51.114;13.128;2022-09-09T08:53:27;22.90;69.50
12874;DHT22;6505;51.114;13.128;2022-09-09T08:56:06;22.90;69.60
12874;DHT22;6505;51.114;13.128;2022-09-09T08:58:47;22.90;69.70
12874;DHT22;6505;51.114;13.128;2022-09-09T09:01:41;22.90;69.90
12874;DHT22;6505;51.114;13.128;2022-09-09T09:04:49;22.90;70.00
12874;DHT22;6505;51.114;13.128;2022-09-09T09:07:37;22.90;70.00
12874;DHT22;6505;51.114;13.128;2022-09-09T09:10:37;22.90;70.00
12874;DHT22;6505;51.114;13.128;2022-09-09T09:13:19;22.90;70.20
12874;DHT22;6505;51.114;13.128;2022-09-09T09:15:55;22.90;70.80
12874;DHT22;6505;51.114;13.128;2022-09-09T09:18:28;22.90;71.20
12874;DHT22;6505;51.114;13.128;2022-09-09T09:21:03;22.90;71.70
12874;DHT22;6505;51.114;13.128;2022-09-09T09:23:42;22.90;72.80
12874;DHT22;6505;51.114;13.128;2022-09-09T09:26:14;22.90;73.40
12874;DHT22;6505;51.114;13.128;2022-09-09T09:28:43;23.00;73.40
12874;DHT22;6505;51.114;13.128;2022-09-09T09:31:15;23.00;73.20
12874;DHT22;6505;51.114;13.128;2022-09-09T09:33:49;23.10;73.30
12874;DHT22;6505;51.114;13.128;2022-09-09T09:36:25;23.10;72.70
12874;DHT22;6505;51.114;13.128;2022-09-09T09:39:04;23.10;72.00
12874;DHT22;6505;51.114;13.128;2022-09-09T09:41:53;23.20;72.10
12874;DHT22;6505;51.114;13.128;2022-09-09T09:44:24;23.20;72.70
12874;DHT22;6505;51.114;13.128;2022-09-09T09:47:06;23.20;73.10
12874;DHT22;6505;51.114;13.128;2022-09-09T09:49:36;23.30;73.20
12874;DHT22;6505;51.114;13.128;2022-09-09T09:52:06;23.30;73.20
12874;DHT22;6505;51.114;13.128;2022-09-09T09:54:49;23.40;72.70
12874;DHT22;6505;51.114;13.128;2022-09-09T09:57:24;23.40;72.50
12874;DHT22;6505;51.114;13.128;2022-09-09T10:00:06;23.40;72.70
12874;DHT22;6505;51.114;13.128;2022-09-09T10:02:44;23.50;72.70
12874;DHT22;6505;51.114;13.128;2022-09-09T10:05:22;23.50;72.90
12874;DHT22;6505;51.114;13.128;2022-09-09T10:08:04;23.50;72.00
12874;DHT22;6505;51.114;13.128;2022-09-09T10:10:53;23.50;71.90
12874;DHT22;6505;51.114;13.128;2022-09-09T10:13:30;23.50;71.20
12874;DHT22;6505;51.114;13.128;2022-09-09T10:16:18;23.50;71.60
12874;DHT22;6505;51.114;13.128;2022-09-09T10:18:59;23.50;72.00
12874;DHT22;6505;51.114;13.128;2022-09-09T10:25:08;23.50;72.00
12874;DHT22;6505;51.114;13.128;2022-09-09T10:28:06;23.50;72.00
12874;DHT22;6505;51.114;13.128;2022-09-09T10:30:52;23.50;71.50
12874;DHT22;6505;51.114;13.128;2022-09-09T10:33:34;23.50;72.10
12874;DHT22;6505;51.114;13.128;2022-09-09T10:36:16;23.60;72.50
12874;DHT22;6505;51.114;13.128;2022-09-09T10:38:52;23.60;71.90
12874;DHT22;6505;51.114;13.128;2022-09-09T10:41:39;23.60;71.90
12874;DHT22;6505;51.114;13.128;2022-09-09T10:44:17;23.60;71.70
12874;DHT22;6505;51.114;13.128;2022-09-09T10:47:12;23.60;71.80
12874;DHT22;6505;51.114;13.128;2022-09-09T10:50:10;23.60;71.00
12874;DHT22;6505;51.114;13.128;2022-09-09T10:52:55;23.60;71.80
12874;DHT22;6505;51.114;13.128;2022-09-09T10:55:37;23.60;71.60
12874;DHT22;6505;51.114;13.128;2022-09-09T10:58:13;23.70;71.40
12874;DHT22;6505;51.114;13.128;2022-09-09T11:00:48;23.60;70.40
12874;DHT22;6505;51.114;13.128;2022-09-09T11:03:26;23.70;70.50
12874;DHT22;6505;51.114;13.128;2022-09-09T11:06:01;23.70;71.10
12874;DHT22;6505;51.114;13.128;2022-09-09T11:08:36;23.70;71.00
12874;DHT22;6505;51.114;13.128;2022-09-09T11:11:11;23.70;70.40
12874;DHT22;6505;51.114;13.128;2022-09-09T11:13:48;23.80;70.30
12874;DHT22;6505;51.114;13.128;2022-09-09T11:16:25;23.80;70.50
12874;DHT22;6505;51.114;13.128;2022-09-09T11:19:02;23.80;70.70
12874;DHT22;6505;51.114;13.128;2022-09-09T11:21:37;23.90;70.40
12874;DHT22;6505;51.114;13.128;2022-09-09T11:24:16;23.90;72.30
12874;DHT22;6505;51.114;13.128;2022-09-09T11:26:54;23.90;71.90
12874;DHT22;6505;51.114;13.128;2022-09-09T11:29:48;24.00;71.70
12874;DHT22;6505;51.114;13.128;2022-09-09T11:32:42;23.90;71.50
12874;DHT22;6505;51.114;13.128;2022-09-09T11:35:33;24.00;71.10
12874;DHT22;6505;51.114;13.128;2022-09-09T11:38:18;24.00;70.50
12874;DHT22;6505;51.114;13.128;2022-09-09T11:40:55;24.00;70.30
12874;DHT22;6505;51.114;13.128;2022-09-09T11:43:29;24.00;70.40
12874;DHT22;6505;51.114;13.128;2022-09-09T11:46:03;24.00;69.90
12874;DHT22;6505;51.114;13.128;2022-09-09T11:48:33;24.00;69.60
12874;DHT22;6505;51.114;13.128;2022-09-09T11:51:06;24.00;68.80
12874;DHT22;6505;51.114;13.128;2022-09-09T11:53:50;24.10;68.90
12874;DHT22;6505;51.114;13.128;2022-09-09T11:56:27;24.10;69.80
12874;DHT22;6505;51.114;13.128;2022-09-09T11:59:00;24.10;70.10
12874;DHT22;6505;51.114;13.128;2022-09-09T12:01:34;24.10;69.40
12874;DHT22;6505;51.114;13.128;2022-09-09T12:04:30;24.10;69.00
12874;DHT22;6505;51.114;13.128;2022-09-09T12:07:03;24.20;69.60
12874;DHT22;6505;51.114;13.128;2022-09-09T12:09:43;24.20;68.60
12874;DHT22;6505;51.114;13.128;2022-09-09T12:12:32;24.20;67.60
12874;DHT22;6505;51.114;13.128;2022-09-09T12:15:20;24.20;68.30
12874;DHT22;6505;51.114;13.128;2022-09-09T12:17:54;24.20;68.60
12874;DHT22;6505;51.114;13.128;2022-09-09T12:20:33;24.20;68.40
12874;DHT22;6505;51.114;13.128;2022-09-09T12:23:17;24.20;68.60
12874;DHT22;6505;51.114;13.128;2022-09-09T12:25:58;24.20;68.30
12874;DHT22;6505;51.114;13.128;2022-09-09T12:28:42;24.30;68.10
12874;DHT22;6505;51.114;13.128;2022-09-09T12:31:21;24.20;68.10
12874;DHT22;6505;51.114;13.128;2022-09-09T12:33:54;24.30;68.10
12874;DHT22;6505;51.114;13.128;2022-09-09T12:36:24;24.30;67.90
12874;DHT22;6505;51.114;13.128;2022-09-09T12:38:59;24.30;67.20
12874;DHT22;6505;51.114;13.128;2022-09-09T12:41:51;24.20;66.90
12874;DHT22;6505;51.114;13.128;2022-09-09T12:44:24;24.30;66.40
12874;DHT22;6505;51.114;13.128;2022-09-09T12:46:55;24.20;66.20
12874;DHT22;6505;51.114;13.128;2022-09-09T12:49:30;24.20;66.80
12874;DHT22;6505;51.114;13.128;2022-09-09T12:52:03;24.20;65.90
12874;DHT22;6505;51.114;13.128;2022-09-09T12:54:35;24.30;65.00
12874;DHT22;6505;51.114;13.128;2022-09-09T12:57:05;24.30;65.70
12874;DHT22;6505;51.114;13.128;2022-09-09T12:59:40;24.30;64.50
12874;DHT22;6505;51.114;13.128;2022-09-09T13:02:16;24.30;64.30
12874;DHT22;6505;51.114;13.128;2022-09-09T13:04:48;24.30;64.10
12874;DHT22;6505;51.114;13.128;2022-09-09T13:07:18;24.30;63.20
12874;DHT22;6505;51.114;13.128;2022-09-09T13:09:49;24.30;63.60
12874;DHT22;6505;51.114;13.128;2022-09-09T13:12:19;24.30;63.40
12874;DHT22;6505;51.114;13.128;2022-09-09T13:14:52;24.30;63.60
12874;DHT22;6505;51.114;13.128;2022-09-09T13:17:24;24.30;63.70
12874;DHT22;6505;51.114;13.128;2022-09-09T13:19:57;24.30;63.60
12874;DHT22;6505;51.114;13.128;2022-09-09T13:22:30;24.30;62.60
12874;DHT22;6505;51.114;13.128;2022-09-09T13:25:01;24.30;63.80
12874;DHT22;6505;51.114;13.128;2022-09-09T13:27:34;24.30;63.30
12874;DHT22;6505;51.114;13.128;2022-09-09T13:30:20;24.30;63.30
12874;DHT22;6505;51.114;13.128;2022-09-09T13:33:19;24.30;62.40
12874;DHT22;6505;51.114;13.128;2022-09-09T13:35:54;24.30;62.70
12874;DHT22;6505;51.114;13.128;2022-09-09T13:38:28;24.30;62.40
12874;DHT22;6505;51.114;13.128;2022-09-09T13:41:00;24.30;62.50
12874;DHT22;6505;51.114;13.128;2022-09-09T13:43:33;24.40;61.70
12874;DHT22;6505;51.114;13.128;2022-09-09T13:46:06;24.40;62.10
12874;DHT22;6505;51.114;13.128;2022-09-09T13:48:56;24.40;62.10
12874;DHT22;6505;51.114;13.128;2022-09-09T13:51:34;24.40;61.60
12874;DHT22;6505;51.114;13.128;2022-09-09T13:54:04;24.40;61.30
12874;DHT22;6505;51.114;13.128;2022-09-09T13:56:33;24.40;61.70
12874;DHT22;6505;51.114;13.128;2022-09-09T13:59:03;24.40;61.40
12874;DHT22;6505;51.114;13.128;2022-09-09T14:01:34;24.40;61.70
12874;DHT22;6505;51.114;13.128;2022-09-09T14:04:04;24.40;61.30
12874;DHT22;6505;51.114;13.128;2022-09-09T14:06:34;24.40;61.30
12874;DHT22;6505;51.114;13.128;2022-09-09T14:09:04;24.40;61.40
12874;DHT22;6505;51.114;13.128;2022-09-09T14:11:33;24.40;61.10
12874;DHT22;6505;51.114;13.128;2022-09-09T14:14:01;24.50;60.90
12874;DHT22;6505;51.114;13.128;2022-09-09T14:16:29;24.40;60.20
12874;DHT22;6505;51.114;13.128;2022-09-09T14:18:57;24.50;59.70
12874;DHT22;6505;51.114;13.128;2022-09-09T14:21:26;24.50;59.50
12874;DHT22;6505;51.114;13.128;2022-09-09T14:23:56;24.50;59.50
12874;DHT22;6505;51.114;13.128;2022-09-09T14:26:25;24.50;58.30
12874;DHT22;6505;51.114;13.128;2022-09-09T14:28:55;24.60;58.90
12874;DHT22;6505;51.114;13.128;2022-09-09T14:31:24;24.60;59.30
12874;DHT22;6505;51.114;13.128;2022-09-09T14:33:52;24.60;58.90
12874;DHT22;6505;51.114;13.128;2022-09-09T14:36:20;24.60;59.00
12874;DHT22;6505;51.114;13.128;2022-09-09T14:38:49;24.60;59.50
12874;DHT22;6505;51.114;13.128;2022-09-09T14:41:20;24.70;58.50
12874;DHT22;6505;51.114;13.128;2022-09-09T14:43:49;24.60;58.30
12874;DHT22;6505;51.114;13.128;2022-09-09T14:46:19;24.70;58.50
12874;DHT22;6505;51.114;13.128;2022-09-09T14:48:48;24.70;58.50
12874;DHT22;6505;51.114;13.128;2022-09-09T14:51:18;24.70;58.20
12874;DHT22;6505;51.114;13.128;2022-09-09T15:14:30;22.60;62.80
12874;DHT22;6505;51.114;13.128;2022-09-09T15:17:01;22.30;65.30
12874;DHT22;6505;51.114;13.128;2022-09-09T15:19:29;22.20;66.30
12874;DHT22;6505;51.114;13.128;2022-09-09T15:21:58;22.30;66.50
12874;DHT22;6505;51.114;13.128;2022-09-09T15:24:26;22.50;66.10
12874;DHT22;6505;51.114;13.128;2022-09-09T15:26:55;22.70;65.60
12874;DHT22;6505;51.114;13.128;2022-09-09T15:29:23;22.90;65.30
12874;DHT22;6505;51.114;13.128;2022-09-09T15:31:53;23.10;64.70
12874;DHT22;6505;51.114;13.128;2022-09-09T15:34:22;23.20;64.30
12874;DHT22;6505;51.114;13.128;2022-09-09T15:36:50;23.40;64.00
12874;DHT22;6505;51.114;13.128;2022-09-09T15:39:18;23.60;63.70
12874;DHT22;6505;51.114;13.128;2022-09-09T15:41:46;23.70;63.20
12874;DHT22;6505;51.114;13.128;2022-09-09T15:44:15;23.80;63.00
12874;DHT22;6505;51.114;13.128;2022-09-09T15:46:44;23.90;62.90
12874;DHT22;6505;51.114;13.128;2022-09-09T15:49:16;24.00;62.70
12874;DHT22;6505;51.114;13.128;2022-09-09T15:51:47;24.00;63.20
12874;DHT22;6505;51.114;13.128;2022-09-09T15:54:19;24.20;63.20
12874;DHT22;6505;51.114;13.128;2022-09-09T15:56:52;24.20;62.70
12874;DHT22;6505;51.114;13.128;2022-09-09T15:59:23;24.30;62.50
12874;DHT22;6505;51.114;13.128;2022-09-09T16:01:53;24.30;61.50
12874;DHT22;6505;51.114;13.128;2022-09-09T16:04:24;24.40;62.70
12874;DHT22;6505;51.114;13.128;2022-09-09T16:06:53;24.40;63.20
12874;DHT22;6505;51.114;13.128;2022-09-09T16:09:25;24.50;62.50
12874;DHT22;6505;51.114;13.128;2022-09-09T16:11:56;24.50;63.40
12874;DHT22;6505;51.114;13.128;2022-09-09T16:14:25;24.60;62.80
12874;DHT22;6505;51.114;13.128;2022-09-09T16:16:53;24.60;62.30
12874;DHT22;6505;51.114;13.128;2022-09-09T16:19:24;24.60;62.60
12874;DHT22;6505;51.114;13.128;2022-09-09T16:21:52;24.60;62.70
12874;DHT22;6505;51.114;13.128;2022-09-09T16:24:20;24.60;62.40
12874;DHT22;6505;51.114;13.128;2022-09-09T16:26:50;24.60;62.20
12874;DHT22;6505;51.114;13.128;2022-09-09T16:29:22;24.60;62.50
12874;DHT22;6505;51.114;13.128;2022-09-09T16:31:54;24.60;62.30
12874;DHT22;6505;51.114;13.128;2022-09-09T16:34:30;24.60;62.50
12874;DHT22;6505;51.114;13.128;2022-09-09T16:37:00;24.60;62.40
12874;DHT22;6505;51.114;13.128;2022-09-09T16:39:28;24.60;62.70